Time;durP1;ratioP1;P1;durP2;ratioP2;P2;SDS_P1;SDS_P2;PMS_P1;PMS_P2;Temp;Humidity;BMP_temperature;BMP_pressure;BME280_temperature;BME280_humidity;BME280_pressure;Samples;Min_cycle;Max_cycle;Signal;HPM_P1;HPM_P2
2022/03/01 00:01:43;;;;;;;40.85;19.77;;;;;;;-3.60;64.34;100533.03;4898112;29;20044;-79
2022/03/01 00:04:08;;;;;;;35.25;19.80;;;;;;;-3.58;64.25;100526.03;4898435;29;20053;-78
2022/03/01 00:06:34;;;;;;;37.15;20.48;;;;;;;-3.62;63.80;100524.31;4912630;29;20049;-80
2022/03/01 00:09:00;;;;;;;34.78;19.30;;;;;;;-3.59;63.91;100519.06;4898105;29;20060;-79
2022/03/01 00:11:26;;;;;;;37.55;20.17;;;;;;;-3.60;64.21;100506.88;4897980;29;20177;-78
2022/03/01 00:13:52;;;;;;;38.75;21.30;;;;;;;-3.60;64.42;100506.88;4897960;29;20048;-79
2022/03/01 00:16:19;;;;;;;43.75;21.90;;;;;;;-3.63;63.95;100504.28;4896463;29;20052;-79
2022/03/01 00:18:46;;;;;;;39.90;21.10;;;;;;;-3.59;63.89;100508.63;4896688;29;20090;-79
2022/03/01 00:21:12;;;;;;;41.00;21.40;;;;;;;-3.67;64.12;100513.88;4881181;29;20041;-78
2022/03/01 00:23:38;;;;;;;41.22;22.70;;;;;;;-3.58;63.92;100518.19;4881232;29;20052;-78
2022/03/01 00:26:04;;;;;;;42.47;22.50;;;;;;;-3.61;64.21;100510.34;4880949;29;20052;-77
2022/03/01 00:28:30;;;;;;;42.10;22.02;;;;;;;-3.66;64.25;100508.63;4881141;29;20052;-79
2022/03/01 00:30:56;;;;;;;44.60;24.35;;;;;;;-3.59;64.30;100506.88;4880976;29;20044;-79
2022/03/01 00:33:22;;;;;;;42.50;23.15;;;;;;;-3.56;64.53;100508.59;4896620;29;20369;-78
2022/03/01 00:35:48;;;;;;;41.45;23.40;;;;;;;-3.58;64.02;100505.13;4896634;29;20056;-79
2022/03/01 00:38:14;;;;;;;44.72;23.27;;;;;;;-3.64;63.96;100497.31;4880979;29;20048;-78
2022/03/01 00:40:40;;;;;;;44.45;24.52;;;;;;;-3.62;63.91;100503.41;4865480;29;20100;-79
2022/03/01 00:43:06;;;;;;;45.03;24.27;;;;;;;-3.63;63.64;100499.06;4896486;29;20042;-78
2022/03/01 00:45:31;;;;;;;45.20;23.23;;;;;;;-3.66;64.19;100495.56;4880779;29;20051;-79
2022/03/01 00:47:57;;;;;;;44.20;23.98;;;;;;;-3.64;64.36;100506.03;4897645;29;20055;-78
2022/03/01 00:50:23;;;;;;;42.35;22.35;;;;;;;-3.65;63.93;100512.09;4897671;29;20044;-78
2022/03/01 00:52:49;;;;;;;40.92;22.17;;;;;;;-3.64;64.20;100513.00;4881115;29;20049;-78
2022/03/01 00:55:15;;;;;;;42.30;22.10;;;;;;;-3.63;64.74;100501.66;4880754;29;20048;-79
2022/03/01 00:57:41;;;;;;;42.60;23.67;;;;;;;-3.61;65.37;100495.56;4881719;29;20415;-79
2022/03/01 01:00:08;;;;;;;42.92;23.75;;;;;;;-3.55;65.18;100508.59;4897234;29;20471;-79
2022/03/01 01:02:34;;;;;;;44.38;25.77;;;;;;;-3.51;64.89;100496.38;4882070;29;20040;-78
2022/03/01 01:04:59;;;;;;;56.38;29.58;;;;;;;-3.49;64.98;100497.25;4897191;29;20048;-78
2022/03/01 01:07:25;;;;;;;58.88;28.65;;;;;;;-3.48;64.76;100486.78;4881324;29;20049;-78
2022/03/01 01:09:52;;;;;;;54.67;29.65;;;;;;;-3.45;65.45;100485.91;4880901;29;20140;-79
2022/03/01 01:12:18;;;;;;;54.65;30.73;;;;;;;-3.44;65.18;100482.41;4880842;29;20040;-78
2022/03/01 01:14:44;;;;;;;56.95;31.98;;;;;;;-3.50;65.27;100479.81;4896219;29;20051;-78
2022/03/01 01:17:10;;;;;;;54.92;30.10;;;;;;;-3.54;65.16;100473.72;4895879;29;20198;-78
2022/03/01 01:19:36;;;;;;;52.90;29.40;;;;;;;-3.57;64.88;100480.72;4866876;29;20084;-78
2022/03/01 01:24:47;;;;;;;58.75;29.80;;;;;;;-3.68;64.58;100479.03;4900963;29;20107;-79
2022/03/01 01:27:13;;;;;;;64.15;33.15;;;;;;;-3.73;64.85;100478.16;4900388;29;20492;-80
2022/03/01 01:29:39;;;;;;;61.40;32.72;;;;;;;-3.78;64.44;100482.56;4899577;29;20051;-79
2022/03/01 01:32:06;;;;;;;62.45;34.33;;;;;;;-3.85;65.12;100483.44;4901473;29;20056;-79
2022/03/01 01:34:32;;;;;;;62.25;32.10;;;;;;;-3.91;64.60;100483.47;4868305;29;20048;-80
2022/03/01 01:36:58;;;;;;;66.45;31.58;;;;;;;-3.91;64.36;100486.97;4901762;29;20523;-79
2022/03/01 01:39:23;;;;;;;58.92;33.28;;;;;;;-3.99;64.57;100473.03;4903509;29;20049;-79
2022/03/01 01:41:49;;;;;;;57.00;32.00;;;;;;;-4.07;64.19;100468.72;4884725;29;20420;-80
2022/03/01 01:44:15;;;;;;;54.60;29.92;;;;;;;-4.04;64.25;100473.94;4884505;29;20481;-79
2022/03/01 01:46:41;;;;;;;60.30;32.28;;;;;;;-4.12;64.54;100463.50;4868026;29;20200;-81
2022/03/01 01:49:08;;;;;;;64.28;31.45;;;;;;;-4.17;64.63;100457.44;4883843;29;20125;-79
2022/03/01 01:51:34;;;;;;;65.93;30.70;;;;;;;-4.21;64.51;100461.78;4900429;29;20056;-79
2022/03/01 01:53:59;;;;;;;67.20;32.67;;;;;;;-4.28;64.46;100452.22;4899277;29;20074;-80
2022/03/01 01:56:25;;;;;;;58.40;31.55;;;;;;;-4.30;64.57;100467.00;4883578;29;20043;-79
2022/03/01 01:58:51;;;;;;;55.28;30.70;;;;;;;-4.36;64.61;100474.88;4900298;29;20056;-78
2022/03/01 02:01:18;;;;;;;59.53;30.92;;;;;;;-4.48;64.36;100456.59;4899392;29;20048;-79
2022/03/01 02:03:44;;;;;;;53.65;29.73;;;;;;;-4.50;64.78;100463.56;4900315;29;20068;-77
2022/03/01 02:06:09;;;;;;;46.80;28.35;;;;;;;-4.65;64.54;100459.22;4899962;29;20108;-78
2022/03/01 02:08:35;;;;;;;57.40;29.02;;;;;;;-4.69;64.69;100460.97;4900033;29;20047;-78
2022/03/01 02:11:01;;;;;;;50.60;27.75;;;;;;;-4.74;64.86;100460.13;4898800;29;20053;-77
2022/03/01 02:13:27;;;;;;;47.95;25.90;;;;;;;-4.76;64.84;100454.00;4900979;29;20080;-78
2022/03/01 02:15:55;;;;;;;52.08;26.10;;;;;;;-4.79;64.99;100446.19;4899927;29;20071;-78
2022/03/01 02:18:21;;;;;;;53.17;27.60;;;;;;;-4.86;65.03;100439.22;4898697;29;20078;-77
2022/03/01 02:20:47;;;;;;;53.42;27.70;;;;;;;-4.82;65.17;100451.41;4899619;29;20096;-79
2022/03/01 02:23:13;;;;;;;60.47;29.40;;;;;;;-4.83;65.34;100448.81;4883018;29;20478;-78
2022/03/01 02:25:39;;;;;;;64.28;32.05;;;;;;;-4.84;65.80;100447.94;4899603;29;20052;-78
2022/03/01 02:28:06;;;;;;;50.63;28.38;;;;;;;-4.90;65.71;100443.56;4898071;29;20488;-79
2022/03/01 02:30:33;;;;;;;61.78;32.15;;;;;;;-4.94;65.57;100444.44;4881956;29;20056;-80
2022/03/01 02:32:59;;;;;;;61.85;30.60;;;;;;;-4.96;65.25;100442.72;4899040;29;20127;-79
2022/03/01 02:35:25;;;;;;;60.65;30.65;;;;;;;-4.93;65.64;100447.91;4899196;29;20123;-78
2022/03/01 02:37:51;;;;;;;53.88;26.90;;;;;;;-5.03;65.74;100452.28;4882297;29;20048;-78
2022/03/01 02:40:17;;;;;;;49.72;28.38;;;;;;;-5.29;65.36;100444.41;4897378;29;20506;-78
2022/03/01 02:42:46;;;;;;;59.88;27.00;;;;;;;-5.30;65.96;100437.47;4882094;29;20048;-78
2022/03/01 02:45:15;;;;;;;48.80;27.38;;;;;;;-5.30;65.89;100437.47;4882067;29;20551;-78
2022/03/01 02:47:42;;;;;;;57.13;32.07;;;;;;;-5.31;65.79;100440.91;4881936;29;20048;-77
2022/03/01 02:50:10;;;;;;;79.40;36.00;;;;;;;-5.29;66.13;100453.97;4882316;29;20301;-78
2022/03/01 02:52:36;;;;;;;87.63;36.95;;;;;;;-5.25;66.33;100446.16;4882135;29;20104;-78
2022/03/01 02:55:04;;;;;;;65.72;34.33;;;;;;;-5.20;66.76;100449.63;4882511;29;20052;-79
2022/03/01 02:57:30;;;;;;;69.03;34.83;;;;;;;-5.16;66.76;100451.38;4898851;29;20534;-78
2022/03/01 02:59:56;;;;;;;65.07;32.92;;;;;;;-5.13;66.27;100453.13;4898675;29;20064;-78
2022/03/01 03:02:22;;;;;;;75.07;32.60;;;;;;;-5.17;66.50;100436.59;4881744;29;20052;-77
2022/03/01 03:04:48;;;;;;;72.32;36.05;;;;;;;-5.14;66.61;100443.56;4881960;29;20097;-77
2022/03/01 03:07:15;;;;;;;69.40;32.45;;;;;;;-5.12;66.80;100450.50;4881517;29;20048;-78
2022/03/01 03:09:40;;;;;;;70.25;36.80;;;;;;;-5.02;66.94;100458.34;4882011;29;20051;-78
2022/03/01 03:12:08;;;;;;;69.20;34.97;;;;;;;-4.97;66.72;100456.59;4865982;29;20135;-80
2022/03/01 03:14:35;;;;;;;74.13;39.50;;;;;;;-5.12;67.23;100462.66;4898417;29;20052;-78
2022/03/01 03:17:01;;;;;;;86.72;44.38;;;;;;;-5.07;67.40;100460.97;4880600;29;20068;-77
2022/03/01 03:19:27;;;;;;;82.93;40.05;;;;;;;-4.97;67.76;100449.66;4894203;29;20052;-77
2022/03/01 03:21:54;;;;;;;79.05;40.28;;;;;;;-4.98;67.62;100428.81;4877679;29;20056;-87
2022/03/01 03:24:20;;;;;;;84.97;36.63;;;;;;;-4.68;69.60;100446.19;4881155;29;20155;-79
2022/03/01 03:26:46;;;;;;;78.13;40.50;;;;;;;-4.38;69.72;100445.28;4882445;29;20072;-83
2022/03/01 03:29:13;;;;;;;74.07;36.58;;;;;;;-4.28;68.39;100448.75;4881509;29;20045;-83
2022/03/01 03:31:41;;;;;;;73.20;36.55;;;;;;;-4.30;67.54;100435.69;4880128;29;20047;-82
2022/03/01 03:34:08;;;;;;;73.80;36.03;;;;;;;-4.28;67.41;100433.97;4879172;29;20053;-79
2022/03/01 03:36:39;;;;;;;67.70;34.88;;;;;;;-4.11;68.79;100433.03;4878827;29;20052;-78
2022/03/01 03:39:07;;;;;;;71.70;36.88;;;;;;;-3.71;70.13;100421.56;4893872;29;20056;-79
2022/03/01 03:41:33;;;;;;;67.05;35.70;;;;;;;-3.61;68.15;100432.84;4898031;29;20134;-79
2022/03/01 03:43:59;;;;;;;75.40;33.58;;;;;;;-3.67;67.03;100422.41;4887950;29;20048;-79
2022/03/01 03:46:25;;;;;;;81.50;34.88;;;;;;;-3.64;66.69;100416.31;4897400;29;20449;-78
2022/03/01 03:48:52;;;;;;;84.38;40.78;;;;;;;-3.74;66.92;100413.72;4880194;29;20052;-76
2022/03/01 03:51:19;;;;;;;76.90;38.35;;;;;;;-3.80;67.06;100405.06;4895855;29;20075;-77
2022/03/01 03:53:46;;;;;;;91.35;35.08;;;;;;;-3.80;66.56;100399.81;4879811;29;20078;-78
2022/03/01 03:56:14;;;;;;;65.32;30.90;;;;;;;-3.85;66.17;100402.47;4880401;29;20044;-81
2022/03/01 03:58:40;;;;;;;73.57;27.85;;;;;;;-3.91;65.93;100403.38;4864803;29;20036;-80
2022/03/01 04:01:06;;;;;;;53.58;25.23;;;;;;;-3.95;65.41;100411.22;4895973;29;20138;-78
2022/03/01 04:03:32;;;;;;;64.68;24.48;;;;;;;-4.08;64.58;100414.75;4880536;29;20052;-79
2022/03/01 04:05:58;;;;;;;43.15;21.88;;;;;;;-4.31;64.13;100414.81;4863368;29;20045;-79
2022/03/01 04:08:24;;;;;;;47.75;22.95;;;;;;;-4.44;63.71;100416.56;4865479;29;20071;-79
2022/03/01 04:10:50;;;;;;;43.67;19.98;;;;;;;-4.76;64.19;100430.53;4880221;29;20496;-79
2022/03/01 04:13:16;;;;;;;71.75;28.05;;;;;;;-4.98;65.14;100444.44;4897102;29;20041;-78
2022/03/01 04:15:42;;;;;;;106.82;42.50;;;;;;;-5.14;65.65;100460.06;4896860;29;20125;-81
2022/03/01 04:18:08;;;;;;;121.70;43.95;;;;;;;-5.29;66.38;100457.44;4880312;29;20055;-78
2022/03/01 04:20:34;;;;;;;74.22;32.50;;;;;;;-5.16;66.11;100451.38;4896128;29;20048;-78
2022/03/01 04:22:59;;;;;;;86.40;33.67;;;;;;;-5.15;65.75;100442.69;4896490;29;20125;-79
2022/03/01 04:25:25;;;;;;;122.93;46.50;;;;;;;-4.96;65.31;100453.16;4895383;29;20052;-78
2022/03/01 04:27:51;;;;;;;97.50;38.00;;;;;;;-4.96;64.66;100448.81;4895437;29;20056;-77
2022/03/01 04:30:17;;;;;;;99.95;36.97;;;;;;;-4.80;64.78;100452.28;4895545;29;20103;-79
2022/03/01 04:32:45;;;;;;;135.35;46.05;;;;;;;-4.72;64.52;100447.94;4897061;29;20421;-78
2022/03/01 04:35:12;;;;;;;118.57;43.92;;;;;;;-4.59;64.26;100464.44;4896861;29;20052;-78
2022/03/01 04:37:40;;;;;;;161.48;56.97;;;;;;;-4.41;64.39;100450.50;4895268;29;20053;-77
2022/03/01 04:40:08;;;;;;;295.88;102.97;;;;;;;-4.27;64.10;100446.13;4865813;29;20045;-79
2022/03/01 04:42:34;;;;;;;163.35;56.83;;;;;;;-4.15;63.80;100451.31;4895191;29;20052;-77
2022/03/01 04:45:00;;;;;;;168.80;54.70;;;;;;;-4.02;63.64;100452.16;4864322;29;20048;-81
2022/03/01 04:47:26;;;;;;;153.25;52.30;;;;;;;-3.92;63.99;100450.38;4876874;29;20044;-78
2022/03/01 04:49:53;;;;;;;113.78;40.10;;;;;;;-3.82;63.94;100454.69;4892951;29;20045;-75
2022/03/01 04:52:19;;;;;;;94.65;33.45;;;;;;;-3.64;63.63;100450.28;4894715;29;20049;-77
2022/03/01 04:54:45;;;;;;;88.38;32.92;;;;;;;-3.54;63.66;100454.56;4881102;29;20131;-78
2022/03/01 04:57:11;;;;;;;108.43;40.38;;;;;;;-3.60;63.53;100454.63;4898827;29;20538;-83
2022/03/01 04:59:37;;;;;;;106.97;37.35;;;;;;;-3.97;63.03;100465.22;4895345;29;20504;-80
2022/03/01 05:02:04;;;;;;;95.60;36.70;;;;;;;-3.85;63.42;100462.53;4883476;29;20044;-79
2022/03/01 05:04:29;;;;;;;103.82;37.72;;;;;;;-3.70;63.01;100454.66;4900613;29;20054;-80
2022/03/01 05:06:56;;;;;;;98.78;37.42;;;;;;;-3.80;63.34;100463.41;4898858;29;20048;-79
2022/03/01 05:09:21;;;;;;;112.18;39.60;;;;;;;-3.85;63.21;100467.78;4898969;29;20044;-77
2022/03/01 05:11:49;;;;;;;104.10;37.97;;;;;;;-3.74;62.69;100481.66;4867802;29;20052;-80
2022/03/01 05:14:15;;;;;;;77.63;31.88;;;;;;;-4.29;62.94;100487.00;4883177;29;20511;-79
2022/03/01 05:16:41;;;;;;;95.28;34.63;;;;;;;-4.70;64.67;100481.81;4898543;29;20052;-79
2022/03/01 05:19:08;;;;;;;78.53;31.10;;;;;;;-4.69;65.59;100489.66;4900041;29;20064;-80
2022/03/01 05:21:34;;;;;;;94.30;36.65;;;;;;;-4.68;65.96;100491.41;4882673;29;20108;-79
2022/03/01 05:24:00;;;;;;;75.55;31.70;;;;;;;-4.62;66.28;100489.69;4898300;29;20412;-80
2022/03/01 05:26:26;;;;;;;57.90;26.67;;;;;;;-4.60;66.89;100487.94;4883166;29;20052;-79
2022/03/01 05:28:52;;;;;;;75.75;29.13;;;;;;;-4.53;66.96;100502.72;4898972;29;20156;-83
2022/03/01 05:31:19;;;;;;;65.40;28.30;;;;;;;-4.30;66.41;100506.16;4883309;29;20588;-78
2022/03/01 05:33:46;;;;;;;64.07;29.77;;;;;;;-4.01;65.96;100502.66;4900330;29;20131;-79
2022/03/01 05:36:14;;;;;;;77.90;31.10;;;;;;;-3.82;65.62;100504.34;4899464;29;20520;-78
2022/03/01 05:38:40;;;;;;;56.70;27.52;;;;;;;-3.41;65.25;100513.78;4899450;29;20053;-80
2022/03/01 05:41:06;;;;;;;59.78;27.58;;;;;;;-3.12;64.70;100515.34;4883026;29;20087;-79
2022/03/01 05:43:32;;;;;;;53.65;25.60;;;;;;;-3.04;64.66;100509.22;4898477;29;20515;-80
2022/03/01 05:45:59;;;;;;;51.50;26.30;;;;;;;-2.83;64.55;100512.56;4899727;29;20068;-78
2022/03/01 05:48:26;;;;;;;48.33;25.10;;;;;;;-2.69;63.58;100510.72;4898606;29;20424;-80
2022/03/01 05:50:53;;;;;;;42.30;20.73;;;;;;;-2.57;62.98;100520.22;4882934;29;20135;-85
2022/03/01 05:53:19;;;;;;;45.88;21.15;;;;;;;-2.81;62.59;100513.44;4866688;29;20050;-80
2022/03/01 05:55:45;;;;;;;44.47;21.55;;;;;;;-3.33;63.52;100517.22;4899390;29;20055;-81
2022/03/01 05:58:11;;;;;;;48.78;26.60;;;;;;;-3.12;64.05;100515.34;4882530;29;20040;-77
2022/03/01 06:00:37;;;;;;;47.38;23.35;;;;;;;-2.77;63.50;100523.88;4898330;29;20044;-81
2022/03/01 06:03:03;;;;;;;42.42;21.25;;;;;;;-3.12;64.43;100520.59;4883202;29;20048;-78
2022/03/01 06:05:30;;;;;;;54.72;24.92;;;;;;;-3.35;64.49;100524.19;4899471;29;20049;-81
2022/03/01 06:07:57;;;;;;;45.47;22.95;;;;;;;-3.14;63.95;100532.81;4880795;29;20052;-80
2022/03/01 06:10:24;;;;;;;47.50;24.10;;;;;;;-2.95;62.86;100530.06;4882984;29;20052;-79
2022/03/01 06:12:50;;;;;;;53.85;23.85;;;;;;;-2.86;61.62;100533.50;4884772;29;20049;-81
2022/03/01 06:15:16;;;;;;;43.08;21.83;;;;;;;-3.04;60.52;100526.66;4853437;29;20116;-80
2022/03/01 06:17:43;;;;;;;48.03;21.77;;;;;;;-3.20;61.19;100526.75;4880729;29;20052;-78
2022/03/01 06:20:10;;;;;;;46.25;20.55;;;;;;;-3.47;61.58;100530.34;4878608;29;20149;-82
2022/03/01 06:22:37;;;;;;;46.33;21.30;;;;;;;-3.17;61.63;100515.38;4878833;29;20049;-80
2022/03/01 06:25:03;;;;;;;41.40;21.67;;;;;;;-2.78;61.80;100519.53;4879356;29;20045;-81
2022/03/01 06:27:30;;;;;;;45.00;21.25;;;;;;;-2.58;60.60;100518.50;4871609;29;20472;-80
2022/03/01 06:29:56;;;;;;;39.65;21.55;;;;;;;-2.60;60.08;100518.50;4899172;29;20037;-80
2022/03/01 06:32:22;;;;;;;45.28;22.95;;;;;;;-2.51;60.31;100515.81;4899309;29;20052;-80
2022/03/01 06:34:53;;;;;;;52.30;27.10;;;;;;;-2.73;59.88;100520.34;4897920;29;20393;-79
2022/03/01 06:37:19;;;;;;;58.63;30.63;;;;;;;-2.60;60.67;100509.78;4881788;29;20057;-80
2022/03/01 06:39:45;;;;;;;59.53;30.45;;;;;;;-2.30;60.28;100512.13;4881811;29;20067;-81
2022/03/01 06:42:12;;;;;;;77.53;36.28;;;;;;;-2.00;60.12;100507.50;4881965;29;20048;-79
2022/03/01 06:44:38;;;;;;;71.45;35.53;;;;;;;-1.63;59.79;100501.84;4897447;29;20063;-79
2022/03/01 06:47:05;;;;;;;69.63;37.53;;;;;;;-1.38;59.07;100495.44;4881872;29;20531;-80
2022/03/01 06:49:31;;;;;;;98.00;51.70;;;;;;;-0.95;59.00;100492.19;4898096;29;20109;-88
2022/03/01 06:51:57;;;;;;;74.88;36.15;;;;;;;-0.62;57.84;100495.22;4896974;29;20496;-81
2022/03/01 06:54:23;;;;;;;68.85;36.25;;;;;;;-0.27;57.65;100498.09;4882559;29;20104;-80
2022/03/01 06:56:49;;;;;;;68.55;35.85;;;;;;;0.14;56.72;100485.97;4897786;29;20048;-80
2022/03/01 06:59:16;;;;;;;68.47;36.22;;;;;;;0.31;55.37;100487.44;4881889;29;20444;-81
2022/03/01 07:01:42;;;;;;;63.83;35.38;;;;;;;0.50;55.84;100474.78;4897520;29;20124;-82
2022/03/01 07:04:08;;;;;;;62.58;35.17;;;;;;;0.90;55.24;100486.19;4898369;29;20135;-82
2022/03/01 07:06:34;;;;;;;60.40;34.53;;;;;;;1.24;54.62;100482.75;4881253;29;20400;-84
2022/03/01 07:09:00;;;;;;;63.85;34.45;;;;;;;1.51;53.46;100478.59;4897200;29;20056;-80
2022/03/01 07:11:26;;;;;;;57.55;32.38;;;;;;;1.73;53.20;100468.38;4882042;29;20045;-82
2022/03/01 07:13:52;;;;;;;70.38;35.15;;;;;;;1.83;52.09;100471.63;4899618;29;20104;-84
2022/03/01 07:16:18;;;;;;;89.45;37.42;;;;;;;1.88;51.70;100477.63;4883626;29;20469;-83
2022/03/01 07:18:44;;;;;;;87.80;40.15;;;;;;;2.05;50.70;100469.28;4898380;29;20052;-81
2022/03/01 07:21:10;;;;;;;100.22;43.10;;;;;;;2.14;50.08;100475.19;4888199;29;20200;-82
2022/03/01 07:23:36;;;;;;;83.20;42.88;;;;;;;2.26;49.98;100462.53;4908083;29;20049;-83
2022/03/01 07:26:04;;;;;;;90.88;42.67;;;;;;;2.32;49.69;100459.75;4883523;29;20059;-86
2022/03/01 07:28:31;;;;;;;91.68;41.20;;;;;;;2.32;49.19;100430.72;4898706;29;20044;-84
2022/03/01 07:30:57;;;;;;;82.80;42.25;;;;;;;2.50;48.53;100453.94;4882279;29;20056;-83
2022/03/01 07:33:23;;;;;;;82.50;41.95;;;;;;;2.39;48.73;100443.69;4897392;29;20127;-85
2022/03/01 07:35:49;;;;;;;90.20;39.47;;;;;;;2.33;48.25;100443.00;4896826;29;20620;-85
2022/03/01 07:38:16;;;;;;;60.95;31.98;;;;;;;2.39;48.35;100442.84;4881353;29;20100;-83
2022/03/01 07:40:42;;;;;;;53.15;29.08;;;;;;;2.36;47.19;100437.63;4881432;29;20048;-83
2022/03/01 07:43:07;;;;;;;54.35;28.27;;;;;;;2.41;47.21;100446.31;4881368;29;20416;-82
2022/03/01 07:45:35;;;;;;;51.67;28.38;;;;;;;2.39;47.12;100437.56;4897159;29;20046;-83
2022/03/01 07:48:01;;;;;;;47.28;27.35;;;;;;;2.38;46.61;100430.56;4865334;29;20143;-83
2022/03/01 07:50:28;;;;;;;53.15;27.52;;;;;;;2.29;46.65;100436.09;4897301;29;20554;-79
2022/03/01 07:52:54;;;;;;;54.03;30.30;;;;;;;2.36;47.06;100446.41;4897117;29;20048;-82
2022/03/01 07:55:21;;;;;;;62.70;28.75;;;;;;;2.47;46.68;100446.09;4897356;29;20049;-81
2022/03/01 07:57:47;;;;;;;55.83;27.75;;;;;;;2.55;46.84;100437.97;4896743;29;20067;-82
2022/03/01 08:00:14;;;;;;;59.58;30.67;;;;;;;2.52;46.55;100441.59;4881995;29;20068;-81
2022/03/01 08:02:41;;;;;;;57.97;31.15;;;;;;;2.46;46.69;100436.47;4897006;29;20429;-81
2022/03/01 08:05:09;;;;;;;63.67;33.45;;;;;;;2.59;46.60;100440.47;4882454;29;20051;-83
2022/03/01 08:07:35;;;;;;;69.63;34.17;;;;;;;2.74;46.02;100443.56;4881612;29;20044;-84
2022/03/01 08:10:01;;;;;;;64.18;33.83;;;;;;;2.70;45.11;100439.28;4896646;29;20062;-84
2022/03/01 08:12:28;;;;;;;69.93;34.47;;;;;;;2.57;45.60;100426.47;4897355;29;20064;-84
2022/03/01 08:14:54;;;;;;;59.00;31.52;;;;;;;2.30;45.11;100437.84;4882070;29;20041;-82
2022/03/01 08:17:20;;;;;;;67.40;32.33;;;;;;;2.21;45.52;100443.34;4882219;29;20076;-80
2022/03/01 08:19:49;;;;;;;63.85;31.23;;;;;;;2.03;45.33;100444.72;4901348;29;20728;-81
2022/03/01 08:22:15;;;;;;;59.47;28.40;;;;;;;1.64;45.91;100451.00;4904665;29;20052;-82
2022/03/01 08:24:41;;;;;;;52.75;27.42;;;;;;;1.91;46.24;100444.16;4908712;29;20063;-83
2022/03/01 08:27:07;;;;;;;47.88;26.15;;;;;;;2.00;45.17;100437.78;4896016;29;20049;-81
2022/03/01 08:29:34;;;;;;;52.53;27.17;;;;;;;2.33;45.49;100435.97;4900372;29;20052;-82
2022/03/01 08:32:00;;;;;;;53.55;27.88;;;;;;;2.16;44.38;100425.88;4900664;29;20044;-83
2022/03/01 08:34:27;;;;;;;51.85;28.88;;;;;;;1.60;45.26;100437.97;4886357;29;20049;-82
2022/03/01 08:36:53;;;;;;;58.33;28.27;;;;;;;1.52;45.63;100432.91;4902519;29;20464;-81
2022/03/01 08:39:19;;;;;;;50.90;26.67;;;;;;;1.54;45.96;100425.78;4900320;29;20052;-82
2022/03/01 08:41:45;;;;;;;55.97;29.83;;;;;;;1.64;46.53;100437.84;4884574;29;20047;-81
2022/03/01 08:44:11;;;;;;;59.28;29.77;;;;;;;2.05;45.81;100443.78;4900908;29;20405;-80
2022/03/01 08:46:37;;;;;;;49.55;26.10;;;;;;;2.11;46.32;100443.63;4884195;29;20048;-80
2022/03/01 08:49:04;;;;;;;28.50;14.02;;;;;;;0.84;49.64;100453.84;4900281;29;20068;-80
2022/03/01 08:51:31;;;;;;;31.08;15.88;;;;;;;0.90;49.68;100437.91;4901806;29;20052;-80
2022/03/01 08:53:57;;;;;;;28.98;16.38;;;;;;;0.82;49.37;100445.97;4899149;29;20151;-83
2022/03/01 08:56:22;;;;;;;34.47;17.55;;;;;;;0.98;49.38;100436.00;4884071;29;20048;-79
2022/03/01 08:58:49;;;;;;;35.08;17.60;;;;;;;1.16;48.82;100443.41;4883725;29;20404;-80
2022/03/01 09:01:15;;;;;;;30.23;15.13;;;;;;;1.27;47.96;100443.16;4882503;29;20052;-79
2022/03/01 09:03:42;;;;;;;30.67;16.20;;;;;;;1.32;48.33;100438.66;4881792;29;20304;-81
2022/03/01 09:06:12;;;;;;;29.92;15.93;;;;;;;0.91;49.07;100450.19;4897880;29;20123;-81
2022/03/01 09:09:05;;;;;;;36.25;17.30;;;;;;;0.78;50.37;100441.69;4882520;29;20036;-83
2022/03/01 09:11:35;;;;;;;33.05;17.17;;;;;;;1.12;50.65;100423.34;4882294;29;20052;-80
2022/03/01 09:14:09;;;;;;;31.25;16.02;;;;;;;0.97;49.84;100421.06;4868269;29;20051;-80
2022/03/01 09:16:41;;;;;;;33.10;17.42;;;;;;;1.08;50.00;100429.56;4884775;29;20496;-79
2022/03/01 09:19:19;;;;;;;35.63;17.83;;;;;;;0.95;50.49;100415.84;4883625;29;20578;-81
2022/03/01 09:21:51;;;;;;;33.30;16.85;;;;;;;1.22;50.48;100418.72;4883567;29;20051;-80
2022/03/01 09:24:19;;;;;;;32.45;17.13;;;;;;;1.84;49.61;100420.63;4893525;29;20043;-81
2022/03/01 09:26:47;;;;;;;33.80;16.20;;;;;;;1.83;48.80;100413.63;4844952;29;20041;-80
2022/03/01 09:29:15;;;;;;;29.73;16.23;;;;;;;1.60;48.93;100419.53;4863293;29;20048;-80
2022/03/01 09:31:43;;;;;;;28.63;16.83;;;;;;;1.35;49.95;100403.47;4848082;29;20060;-78
2022/03/01 09:34:09;;;;;;;30.02;16.35;;;;;;;1.52;49.88;100411.81;4878767;29;20086;-77
2022/03/01 09:36:35;;;;;;;30.13;16.05;;;;;;;1.56;49.82;100412.59;4863557;29;20049;-80
2022/03/01 09:39:02;;;;;;;28.08;14.45;;;;;;;1.42;49.84;100399.78;4879615;29;20089;-91
2022/03/01 09:41:31;;;;;;;24.98;12.85;;;;;;;1.08;51.05;100400.63;4849966;29;20053;-80
2022/03/01 09:43:58;;;;;;;24.77;14.00;;;;;;;1.10;51.58;100401.47;4881910;29;20136;-82
2022/03/01 09:46:24;;;;;;;28.63;14.32;;;;;;;1.27;51.17;100405.44;4870260;29;20295;-80
2022/03/01 09:48:50;;;;;;;31.67;13.88;;;;;;;1.61;50.91;100406.28;4899864;29;20056;-80
2022/03/01 09:51:19;;;;;;;27.10;13.30;;;;;;;2.00;50.82;100398.22;4883067;29;20063;-83
2022/03/01 09:53:47;;;;;;;29.60;14.53;;;;;;;2.65;49.77;100403.34;4898807;29;20052;-81
2022/03/01 09:56:14;;;;;;;27.95;14.70;;;;;;;2.78;48.66;100395.03;4882685;29;20299;-80
2022/03/01 09:58:44;;;;;;;25.10;13.55;;;;;;;2.84;48.60;100405.41;4882567;29;20044;-81
2022/03/01 10:01:10;;;;;;;27.60;13.00;;;;;;;2.82;48.58;100399.28;4898655;29;20075;-81
2022/03/01 10:03:36;;;;;;;27.30;13.25;;;;;;;2.67;48.75;100396.25;4899697;29;20533;-82
2022/03/01 10:06:13;;;;;;;23.70;13.02;;;;;;;2.67;48.67;100390.06;4882524;29;20104;-82
2022/03/01 10:08:40;;;;;;;26.98;12.52;;;;;;;3.01;48.77;100395.19;4883185;29;20040;-80
2022/03/01 10:11:07;;;;;;;25.02;12.73;;;;;;;3.04;48.65;100395.06;4882757;29;20519;-80
2022/03/01 10:13:35;;;;;;;23.98;12.82;;;;;;;3.38;48.11;100393.94;4883866;29;20048;-83
2022/03/01 10:16:06;;;;;;;25.52;13.27;;;;;;;3.54;47.50;100395.19;4887383;29;20500;-82
2022/03/01 10:18:34;;;;;;;26.63;12.07;;;;;;;3.47;47.51;100391.00;4884329;29;20044;-81
2022/03/01 10:21:06;;;;;;;26.67;11.75;;;;;;;3.43;47.55;100381.47;4898664;29;20044;-79
2022/03/01 10:23:33;;;;;;;21.83;11.32;;;;;;;3.47;47.79;100393.66;4898611;29;20488;-78
2022/03/01 10:26:16;;;;;;;24.35;12.63;;;;;;;3.72;47.11;100392.78;4896345;29;20100;-79
2022/03/01 10:28:44;;;;;;;24.23;12.38;;;;;;;3.90;46.91;100394.78;4890584;29;20127;-78
2022/03/01 10:31:22;;;;;;;25.08;12.27;;;;;;;4.26;46.41;100391.72;4856563;29;20465;-81
2022/03/01 10:34:06;;;;;;;33.28;12.40;;;;;;;4.37;46.05;100376.31;4889641;29;20517;-82
2022/03/01 10:36:48;;;;;;;24.55;13.20;;;;;;;4.10;46.10;100388.78;4871480;29;20052;-82
2022/03/01 10:39:22;;;;;;;23.75;12.93;;;;;;;4.22;46.52;100392.75;4902139;29;20051;-82
2022/03/01 10:41:50;;;;;;;23.23;13.38;;;;;;;4.60;45.35;100383.38;4857782;29;20040;-82
2022/03/01 10:44:24;;;;;;;24.92;13.25;;;;;;;4.93;44.50;100386.47;4871938;29;20059;-81
2022/03/01 10:46:55;;;;;;;21.45;12.23;;;;;;;4.70;44.32;100383.84;4881086;29;20071;-81
2022/03/01 10:49:22;;;;;;;31.67;13.45;;;;;;;4.49;44.26;100401.44;4886740;29;20060;-78
2022/03/01 10:51:57;;;;;;;24.80;13.10;;;;;;;4.29;45.33;100394.28;4881950;29;20056;-80
2022/03/01 10:54:23;;;;;;;23.00;12.63;;;;;;;4.55;44.95;100386.19;4897734;29;20059;-80
2022/03/01 10:56:51;;;;;;;21.33;12.63;;;;;;;4.93;44.23;100391.78;4881218;29;20049;-80
2022/03/01 10:59:18;;;;;;;21.77;12.75;;;;;;;5.05;43.45;100395.72;4897425;29;20040;-80
2022/03/01 11:01:44;;;;;;;28.70;13.43;;;;;;;4.94;43.62;100404.09;4897083;29;20143;-81
2022/03/01 11:04:10;;;;;;;21.08;11.73;;;;;;;5.27;43.72;100393.06;4880856;29;20123;-81
2022/03/01 11:06:37;;;;;;;24.35;12.52;;;;;;;5.36;43.46;100390.00;4888542;29;20048;-80
2022/03/01 11:09:06;;;;;;;23.95;11.65;;;;;;;5.74;42.78;100395.47;4898669;29;20523;-80
2022/03/01 11:11:33;;;;;;;19.58;11.60;;;;;;;5.55;42.40;100390.09;4896992;29;20501;-81
2022/03/01 11:14:01;;;;;;;22.52;11.80;;;;;;;5.54;42.49;100383.91;4883766;29;20452;-80